createdAt,value
2023-04-02T00:04:53.121Z,995.9
2023-04-02T00:15:01.046Z,996.2
2023-04-02T00:25:09.011Z,996.3
2023-04-02T00:35:16.935Z,996.5
2023-04-02T00:45:24.915Z,996.7
2023-04-02T00:55:33.066Z,996.8
2023-04-02T01:05:38.870Z,997
2023-04-02T01:15:46.777Z,997.2
2023-04-02T01:25:52.831Z,997.3
2023-04-02T01:35:58.880Z,997.4
2023-04-02T01:46:04.992Z,997.6
2023-04-02T01:56:10.957Z,997.8
2023-04-02T02:06:17.048Z,997.9
2023-04-02T02:16:24.991Z,998.1
2023-04-02T02:26:30.993Z,998.2
2023-04-02T02:36:38.949Z,998.4
2023-04-02T02:46:46.858Z,998.5
2023-04-02T02:56:52.975Z,998.8
2023-04-02T03:06:58.954Z,999
2023-04-02T03:17:06.885Z,999.2
2023-04-02T03:27:14.839Z,999.4
2023-04-02T03:37:22.757Z,999.6
2023-04-02T03:47:30.755Z,999.8
2023-04-02T03:57:38.628Z,1000.1
2023-04-02T04:07:46.586Z,1000.4
2023-04-02T04:17:54.497Z,1000.5
2023-04-02T04:28:02.451Z,1000.8
2023-04-02T04:38:10.375Z,1000.9
2023-04-02T04:48:18.344Z,1001.2
2023-04-02T04:58:26.275Z,1001.5
2023-04-02T05:08:32.340Z,1001.8
2023-04-02T05:18:38.355Z,1001.9
2023-04-02T05:28:44.435Z,1002
2023-04-02T05:38:50.448Z,1002.3
2023-04-02T05:48:56.559Z,1002.6
2023-04-02T05:59:02.582Z,1002.9
2023-04-02T06:09:08.650Z,1003.2
2023-04-02T06:19:16.537Z,1003.5
2023-04-02T06:29:22.604Z,1003.7
2023-04-02T06:39:30.509Z,1003.8
2023-04-02T06:49:36.590Z,1004.1
2023-04-02T06:59:42.621Z,1004.4
2023-04-02T07:09:48.665Z,1004.5
2023-04-02T07:19:54.701Z,1004.7
2023-04-02T07:30:02.654Z,1004.9
2023-04-02T07:40:08.697Z,1005.1
2023-04-02T07:50:16.649Z,1005.4
2023-04-02T08:00:24.585Z,1005.5
2023-04-02T08:10:32.514Z,1005.8
2023-04-02T08:20:40.434Z,1006
2023-04-02T08:30:48.430Z,1006.2
2023-04-02T08:40:56.329Z,1006.4
2023-04-02T08:51:04.281Z,1006.5
2023-04-02T09:01:12.209Z,1006.8
2023-04-02T09:11:20.133Z,1007
2023-04-02T09:21:26.170Z,1007.1
2023-04-02T09:31:34.183Z,1007.4
2023-04-02T09:41:40.189Z,1007.6
2023-04-02T09:51:46.228Z,1007.9
2023-04-02T10:01:52.267Z,1008.1
2023-04-02T10:11:58.319Z,1008.4
2023-04-02T10:22:04.369Z,1008.6
2023-04-02T10:32:12.281Z,1008.9
2023-04-02T10:42:18.325Z,1008.9
2023-04-02T10:52:24.393Z,1009.1
2023-04-02T11:02:30.512Z,1009.2
2023-04-02T11:12:41.406Z,1009.4
2023-04-02T11:22:44.415Z,1009.5
2023-04-02T11:32:50.484Z,1009.7
2023-04-02T11:42:56.533Z,1009.9
2023-04-02T11:53:04.447Z,1009.9
2023-04-02T12:03:12.409Z,1010.1
2023-04-02T12:13:20.324Z,1010.1
2023-04-02T12:23:28.275Z,1010.2
2023-04-02T12:33:36.212Z,1010.4
2023-04-02T12:43:44.137Z,1010.6
2023-04-02T12:53:52.081Z,1010.6
2023-04-02T13:04:00.179Z,1010.8
2023-04-02T13:14:07.967Z,1010.8
2023-04-02T13:24:15.908Z,1010.9
2023-04-02T13:34:23.857Z,1011
2023-04-02T13:44:29.898Z,1011.2
2023-04-02T13:54:35.924Z,1011.4
2023-04-02T14:04:42.014Z,1011.6
2023-04-02T14:14:48.037Z,1011.8
2023-04-02T14:24:54.101Z,1011.9
2023-04-02T14:35:00.149Z,1012
2023-04-02T14:45:08.071Z,1012.1
2023-04-02T14:55:14.091Z,1012.2
2023-04-02T15:05:22.061Z,1012.3
2023-04-02T15:15:37.211Z,1012.3
2023-04-02T15:25:36.047Z,1012.3
2023-04-02T15:35:42.140Z,1012.5
2023-04-02T15:45:50.050Z,1012.4
2023-04-02T15:55:57.947Z,1012.6
2023-04-02T16:06:05.881Z,1012.6
2023-04-02T16:16:13.833Z,1013
2023-04-02T16:26:21.739Z,1013.1
2023-04-02T16:36:29.792Z,1013.1
2023-04-02T16:56:45.804Z,1013.4
2023-04-02T17:06:53.501Z,1013.5
2023-04-02T17:17:01.451Z,1013.7
2023-04-02T17:27:09.386Z,1013.9
2023-04-02T17:37:17.336Z,1014
2023-04-02T17:47:25.288Z,1014.1
2023-04-02T17:57:31.438Z,1014.3
2023-04-02T18:07:39.220Z,1014.4
2023-04-02T18:17:45.340Z,1014.6
2023-04-02T18:27:53.234Z,1014.8
2023-04-02T18:37:59.286Z,1014.8
2023-04-02T18:48:07.259Z,1015
2023-04-02T18:58:13.248Z,1015.1
2023-04-02T19:08:21.161Z,1015.2
2023-04-02T19:18:27.255Z,1015.4
2023-04-02T19:28:33.302Z,1015.4
2023-04-02T19:38:39.373Z,1015.7
2023-04-02T19:48:47.259Z,1015.7
2023-04-02T19:58:56.696Z,1015.8
2023-04-02T20:09:03.130Z,1015.9
2023-04-02T20:19:11.083Z,1016
2023-04-02T20:29:19.005Z,1016
2023-04-02T20:39:26.960Z,1016.2
2023-04-02T20:49:34.876Z,1016.3
2023-04-02T20:59:42.833Z,1016.4
2023-04-02T21:09:50.764Z,1016.6
2023-04-02T21:19:58.710Z,1016.6
2023-04-02T21:30:06.650Z,1016.6
2023-04-02T21:40:14.631Z,1016.7
2023-04-02T21:50:22.510Z,1016.7
2023-04-02T22:00:30.461Z,1016.8
2023-04-02T22:10:36.754Z,1016.8
2023-04-02T22:20:42.587Z,1016.9
2023-04-02T22:30:48.644Z,1017
2023-04-02T22:40:54.659Z,1017.1
2023-04-02T22:51:02.613Z,1017.2
2023-04-02T23:11:16.593Z,1017.3
2023-04-02T23:21:22.629Z,1017.3
2023-04-02T23:31:30.738Z,1017.3
2023-04-02T23:41:38.497Z,1017.3
2023-04-02T23:51:46.621Z,1017.4
